Time;durP1;ratioP1;P1;durP2;ratioP2;P2;SDS_P1;SDS_P2;PMS_P1;PMS_P2;Temp;Humidity;BMP_temperature;BMP_pressure;BME280_temperature;BME280_humidity;BME280_pressure;Samples;Min_cycle;Max_cycle;Signal;HPM_P1;HPM_P2
2022/10/26 02:46:55;;;;;;;11.77;5.35;;;28.10;91.10;;;;;;4927932;29;20064;-51
2022/10/26 02:49:22;;;;;;;5.60;3.50;;;28.00;91.00;;;;;;4957463;29;20047;-46
2022/10/26 02:52:04;;;;;;;4.03;2.60;;;28.10;91.00;;;;;;4967418;29;20046;-43
2022/10/26 02:54:42;;;;;;;4.68;2.20;;;28.10;90.90;;;;;;4967125;28;20127;-52
2022/10/26 02:57:40;;;;;;;4.88;1.92;;;28.10;90.80;;;;;;4967366;29;20337;-47
2022/10/26 03:00:10;;;;;;;5.00;1.55;;;28.10;90.70;;;;;;4967597;29;20218;-48
2022/10/26 03:02:37;;;;;;;6.22;1.50;;;28.10;90.70;;;;;;4967340;29;20086;-47
2022/10/26 03:05:34;;;;;;;2.72;1.60;;;28.00;91.00;;;;;;4967286;29;20350;-47
2022/10/26 03:08:01;;;;;;;3.08;1.40;;;28.10;90.60;;;;;;4966988;29;20035;-44
2022/10/26 03:10:28;;;;;;;3.97;1.60;;;28.00;90.70;;;;;;4967230;29;20054;-50
2022/10/26 03:12:55;;;;;;;4.22;1.50;;;28.00;90.80;;;;;;4967012;29;20025;-50
2022/10/26 03:15:21;;;;;;;4.28;1.50;;;28.00;90.80;;;;;;4966979;29;20086;-52
2022/10/26 03:17:48;;;;;;;6.55;2.00;;;28.00;90.80;;;;;;4966854;29;20027;-47
2022/10/26 03:20:14;;;;;;;6.20;1.83;;;28.00;90.90;;;;;;4967287;29;20046;-45
2022/10/26 03:22:41;;;;;;;4.38;1.50;;;28.00;91.00;;;;;;4966904;29;20027;-42
2022/10/26 03:25:08;;;;;;;4.72;1.55;;;28.00;91.00;;;;;;4967224;29;20238;-41
2022/10/26 03:27:34;;;;;;;5.70;1.70;;;28.00;91.00;;;;;;4966742;29;20034;-41
2022/10/26 03:30:01;;;;;;;3.55;1.70;;;28.00;91.00;;;;;;4966913;29;20033;-40
2022/10/26 03:32:27;;;;;;;3.67;1.60;;;28.00;90.90;;;;;;4966412;29;20374;-40
2022/10/26 03:34:54;;;;;;;5.40;1.52;;;28.00;91.00;;;;;;4966941;29;20070;-41
2022/10/26 03:37:20;;;;;;;2.55;1.30;;;28.00;90.90;;;;;;4966447;29;20042;-47
2022/10/26 03:39:47;;;;;;;3.70;1.30;;;28.00;90.90;;;;;;4966655;29;20023;-45
2022/10/26 03:42:13;;;;;;;4.97;1.23;;;28.00;91.00;;;;;;4966771;29;20292;-46
2022/10/26 03:44:40;;;;;;;5.75;1.50;;;28.00;91.10;;;;;;4966752;29;20027;-44
2022/10/26 03:47:06;;;;;;;5.30;1.45;;;28.00;91.20;;;;;;4966157;29;20074;-46
2022/10/26 03:49:33;;;;;;;5.57;1.40;;;28.00;91.10;;;;;;4966461;29;20031;-49
2022/10/26 03:52:00;;;;;;;5.55;1.40;;;27.90;91.10;;;;;;4966158;29;20369;-52
2022/10/26 03:54:26;;;;;;;2.75;1.25;;;27.90;91.20;;;;;;4966235;28;20054;-47
2022/10/26 03:56:53;;;;;;;3.90;1.30;;;27.90;91.20;;;;;;4966221;29;20019;-41
2022/10/26 03:59:19;;;;;;;4.85;1.30;;;27.90;91.20;;;;;;4966035;28;20323;-42
2022/10/26 04:01:46;;;;;;;9.60;1.40;;;27.90;91.10;;;;;;4966233;29;20031;-46
2022/10/26 04:04:12;;;;;;;3.63;1.10;;;27.90;91.20;;;;;;4965858;28;20110;-45
2022/10/26 04:06:39;;;;;;;8.10;1.02;;;27.90;91.20;;;;;;4966433;29;20082;-45
2022/10/26 04:09:07;;;;;;;8.52;1.02;;;27.90;91.20;;;;;;4966044;29;20035;-46
2022/10/26 04:11:33;;;;;;;3.30;1.10;;;27.90;91.30;;;;;;4965882;29;20050;-44
2022/10/26 04:14:00;;;;;;;2.95;1.10;;;27.90;91.30;;;;;;4966223;29;20035;-47
2022/10/26 04:16:27;;;;;;;3.60;1.00;;;27.90;91.30;;;;;;4966186;29;20042;-49
2022/10/26 04:18:53;;;;;;;4.03;0.90;;;27.90;91.20;;;;;;4965901;29;20054;-46
2022/10/26 04:21:19;;;;;;;2.88;0.90;;;27.90;91.20;;;;;;4965877;29;20026;-45
2022/10/26 04:23:46;;;;;;;3.60;0.82;;;27.90;91.20;;;;;;4966029;29;20034;-43
2022/10/26 04:26:13;;;;;;;4.00;1.00;;;27.80;91.10;;;;;;4965625;29;20034;-46
2022/10/26 04:28:39;;;;;;;3.90;0.90;;;27.80;91.10;;;;;;4965714;29;20054;-40
2022/10/26 04:31:05;;;;;;;4.43;0.90;;;27.90;91.20;;;;;;4965698;29;20027;-46
2022/10/26 04:33:32;;;;;;;3.05;0.82;;;27.80;91.10;;;;;;4965927;29;20019;-42
2022/10/26 04:36:02;;;;;;;3.58;1.10;;;27.80;91.10;;;;;;4966070;29;20016;-47
2022/10/26 04:38:28;;;;;;;4.63;0.80;;;27.80;91.10;;;;;;4965810;29;20043;-41
2022/10/26 04:40:55;;;;;;;3.42;0.77;;;27.80;91.00;;;;;;4965619;29;20310;-43
2022/10/26 04:43:21;;;;;;;6.18;0.90;;;27.80;91.10;;;;;;4965630;28;20018;-45
2022/10/26 04:45:48;;;;;;;3.70;0.75;;;27.80;91.20;;;;;;4965745;29;20373;-42
2022/10/26 04:48:15;;;;;;;3.63;1.00;;;27.80;91.10;;;;;;4965380;29;20081;-46
2022/10/26 04:50:41;;;;;;;4.38;0.90;;;27.80;91.20;;;;;;4965990;29;20029;-46
2022/10/26 04:53:09;;;;;;;3.20;0.80;;;27.80;91.20;;;;;;4965596;29;20318;-45
2022/10/26 04:55:36;;;;;;;3.65;0.88;;;27.80;91.30;;;;;;4965884;28;20035;-54
2022/10/26 04:58:03;;;;;;;4.97;1.00;;;27.80;91.20;;;;;;4965789;29;20227;-55
2022/10/26 05:00:31;;;;;;;4.55;1.10;;;27.80;91.30;;;;;;4966248;29;20043;-51
2022/10/26 05:03:06;;;;;;;0.98;0.60;;;27.80;91.40;;;;;;4965425;29;20023;-42
2022/10/26 05:05:34;;;;;;;6.07;0.60;;;27.80;91.40;;;;;;4965858;29;20314;-43
2022/10/26 05:08:00;;;;;;;3.70;0.65;;;27.70;91.40;;;;;;4965689;29;20098;-40
2022/10/26 05:10:28;;;;;;;3.53;0.90;;;27.70;91.40;;;;;;4965613;29;20027;-40
2022/10/26 05:12:56;;;;;;;3.75;0.95;;;27.70;91.40;;;;;;4965530;29;20027;-42
2022/10/26 05:15:23;;;;;;;4.13;0.93;;;27.70;91.50;;;;;;4965438;28;20051;-47
2022/10/26 05:18:00;;;;;;;4.45;0.90;;;27.70;91.40;;;;;;4969418;29;20015;-47
2022/10/26 05:20:29;;;;;;;3.80;0.77;;;27.70;91.40;;;;;;4969766;29;20031;-44
2022/10/26 05:23:02;;;;;;;2.47;0.90;;;27.60;91.30;;;;;;4968812;29;20019;-44
2022/10/26 05:25:31;;;;;;;5.50;0.70;;;27.70;91.40;;;;;;4969415;29;20303;-49
2022/10/26 05:28:02;;;;;;;3.60;0.80;;;27.60;91.30;;;;;;4969562;29;20086;-43
2022/10/26 05:30:29;;;;;;;4.25;0.70;;;27.60;91.20;;;;;;4969703;29;20027;-44
2022/10/26 05:32:56;;;;;;;2.88;0.70;;;27.60;91.20;;;;;;4969258;29;20019;-42
2022/10/26 05:35:24;;;;;;;3.22;0.70;;;27.60;91.10;;;;;;4969129;29;20143;-42
2022/10/26 05:37:51;;;;;;;4.90;0.93;;;27.60;91.00;;;;;;4969164;29;20214;-42
2022/10/26 05:40:19;;;;;;;3.83;0.80;;;27.60;91.00;;;;;;4969777;29;20031;-45
2022/10/26 05:42:45;;;;;;;3.10;0.60;;;27.60;90.90;;;;;;4968937;29;20027;-43
2022/10/26 05:45:13;;;;;;;3.90;0.70;;;27.60;90.90;;;;;;4968822;29;20086;-45
2022/10/26 05:47:43;;;;;;;4.32;0.80;;;27.60;90.90;;;;;;4968452;29;20058;-42
2022/10/26 05:50:11;;;;;;;2.63;0.70;;;27.50;90.90;;;;;;4969365;29;20034;-46
2022/10/26 05:52:42;;;;;;;4.45;0.63;;;27.60;90.80;;;;;;4968578;29;20327;-45
2022/10/26 05:55:11;;;;;;;5.18;0.80;;;27.50;90.90;;;;;;4968742;28;20042;-55
2022/10/26 05:57:38;;;;;;;3.13;0.82;;;27.60;90.90;;;;;;4968722;29;20047;-51
2022/10/26 06:00:19;;;;;;;4.65;0.80;;;27.50;91.00;;;;;;4968684;29;20031;-51
2022/10/26 06:02:52;;;;;;;4.10;0.70;;;27.50;91.00;;;;;;4968510;29;20034;-52
2022/10/26 06:05:24;;;;;;;3.20;0.50;;;27.50;91.00;;;;;;4968741;29;20031;-41
2022/10/26 06:07:51;;;;;;;3.35;0.82;;;27.50;91.10;;;;;;4968323;29;20027;-44
2022/10/26 06:10:18;;;;;;;2.92;0.68;;;27.50;91.10;;;;;;4968441;29;20031;-51
2022/10/26 06:12:45;;;;;;;1.90;0.65;;;27.50;91.10;;;;;;4968012;29;20049;-51
2022/10/26 06:15:20;;;;;;;3.03;0.80;;;27.50;91.20;;;;;;4968372;29;20054;-48
2022/10/26 06:18:14;;;;;;;6.45;0.80;;;27.50;91.20;;;;;;4968270;29;20052;-42
2022/10/26 06:20:59;;;;;;;4.65;0.73;;;27.40;91.20;;;;;;4968383;29;20024;-51
2022/10/26 06:23:52;;;;;;;3.53;0.70;;;27.40;91.20;;;;;;4968253;29;20019;-42
2022/10/26 06:26:34;;;;;;;1.40;0.80;;;27.40;91.20;;;;;;4967872;29;20019;-42
2022/10/26 06:29:10;;;;;;;4.22;0.60;;;27.40;91.20;;;;;;4967024;28;20027;-43
2022/10/26 06:31:36;;;;;;;4.45;0.63;;;27.40;91.20;;;;;;4967770;29;20026;-45
2022/10/26 06:34:03;;;;;;;2.40;0.70;;;27.40;91.10;;;;;;4968302;29;20090;-44
2022/10/26 06:36:31;;;;;;;3.38;0.80;;;27.40;90.90;;;;;;4967860;29;20086;-42
2022/10/26 06:39:06;;;;;;;2.50;0.70;;;27.40;91.00;;;;;;4967921;29;20031;-45
2022/10/26 06:41:35;;;;;;;4.45;0.98;;;27.40;91.10;;;;;;4967941;29;20030;-42
2022/10/26 06:44:03;;;;;;;2.30;0.80;;;27.40;91.10;;;;;;4967926;29;20027;-45
2022/10/26 06:46:36;;;;;;;6.15;1.00;;;27.40;91.10;;;;;;4967514;29;20027;-42
2022/10/26 06:49:15;;;;;;;4.35;1.00;;;27.40;91.00;;;;;;4967650;29;20036;-42
2022/10/26 06:52:19;;;;;;;4.03;0.82;;;27.40;91.10;;;;;;4967680;29;20247;-40
2022/10/26 06:54:55;;;;;;;5.97;0.82;;;27.40;91.30;;;;;;4967665;28;20358;-47
2022/10/26 06:57:27;;;;;;;3.45;0.80;;;27.30;91.20;;;;;;4967854;29;20299;-41
2022/10/26 07:00:04;;;;;;;6.80;0.90;;;27.30;91.20;;;;;;4967851;29;20031;-47
2022/10/26 07:02:31;;;;;;;4.50;0.80;;;27.30;91.20;;;;;;4967459;29;20062;-43
2022/10/26 07:04:57;;;;;;;3.05;0.70;;;27.30;91.60;;;;;;4967433;29;20333;-42
2022/10/26 07:07:28;;;;;;;5.47;0.70;;;27.30;91.40;;;;;;4967252;29;20061;-44
2022/10/26 07:09:54;;;;;;;4.75;0.90;;;27.30;91.40;;;;;;4967527;29;20112;-40
2022/10/26 07:12:21;;;;;;;4.82;0.90;;;27.30;91.40;;;;;;4966940;29;20207;-45
2022/10/26 07:14:47;;;;;;;5.75;0.73;;;27.30;91.40;;;;;;4967545;29;20090;-44
2022/10/26 07:17:15;;;;;;;3.80;0.70;;;27.30;91.40;;;;;;4967027;29;20019;-41
2022/10/26 07:19:43;;;;;;;3.30;0.85;;;27.30;91.50;;;;;;4967156;29;20031;-42
2022/10/26 07:22:10;;;;;;;4.03;0.80;;;27.30;91.50;;;;;;4966983;29;20027;-42
2022/10/26 07:24:36;;;;;;;3.80;1.00;;;27.30;91.60;;;;;;4967106;29;20370;-41
2022/10/26 07:27:03;;;;;;;5.75;1.13;;;27.20;91.60;;;;;;4967070;29;20266;-41
2022/10/26 07:29:29;;;;;;;4.82;0.90;;;27.20;91.60;;;;;;4966804;29;20057;-42
2022/10/26 07:31:56;;;;;;;3.85;0.80;;;27.20;91.60;;;;;;4966833;29;20015;-41
2022/10/26 07:34:22;;;;;;;3.40;0.90;;;27.20;91.60;;;;;;4967006;29;20063;-42
2022/10/26 07:36:50;;;;;;;6.15;0.93;;;27.20;91.70;;;;;;4967475;29;20087;-45
2022/10/26 07:39:16;;;;;;;5.18;0.90;;;27.20;91.80;;;;;;4967187;28;20049;-45
2022/10/26 07:41:45;;;;;;;3.95;0.88;;;27.20;91.80;;;;;;4966957;29;20337;-40
2022/10/26 07:44:11;;;;;;;3.15;0.73;;;27.20;91.90;;;;;;4967049;29;20031;-45
2022/10/26 07:46:38;;;;;;;5.68;0.68;;;27.10;91.90;;;;;;4966908;29;20134;-42
2022/10/26 07:49:04;;;;;;;4.97;1.00;;;27.10;92.00;;;;;;4966808;29;20058;-43
2022/10/26 07:51:31;;;;;;;5.00;0.80;;;27.10;92.10;;;;;;4966720;29;20011;-42
2022/10/26 07:53:57;;;;;;;4.28;0.90;;;27.10;92.10;;;;;;4966769;29;20333;-43
2022/10/26 07:56:24;;;;;;;4.47;0.90;;;27.10;92.40;;;;;;4966488;28;20023;-45
2022/10/26 07:58:54;;;;;;;3.63;1.00;;;27.10;92.30;;;;;;4966596;29;20307;-50
2022/10/26 08:01:21;;;;;;;3.45;0.73;;;27.10;92.30;;;;;;4966353;29;20027;-40
2022/10/26 08:03:50;;;;;;;6.00;0.88;;;27.00;92.20;;;;;;4966335;29;20031;-45
2022/10/26 08:06:17;;;;;;;4.05;0.95;;;27.00;92.30;;;;;;4966227;29;20263;-41
2022/10/26 08:08:43;;;;;;;5.65;1.30;;;27.00;92.30;;;;;;4966347;29;20035;-42
2022/10/26 08:11:10;;;;;;;3.47;0.88;;;27.00;92.20;;;;;;4966117;29;20082;-45
2022/10/26 08:13:36;;;;;;;4.72;1.15;;;27.00;92.20;;;;;;4965954;29;20295;-50
2022/10/26 08:16:04;;;;;;;2.35;0.65;;;27.00;92.30;;;;;;4966124;29;20093;-54
2022/10/26 08:18:32;;;;;;;6.32;0.80;;;27.00;92.40;;;;;;4966103;29;20319;-51
2022/10/26 08:21:09;;;;;;;4.25;0.75;;;27.00;92.40;;;;;;4966128;29;20235;-42
2022/10/26 08:23:35;;;;;;;3.78;0.82;;;27.00;92.30;;;;;;4966085;29;20038;-47
2022/10/26 08:26:03;;;;;;;7.07;0.90;;;27.00;92.30;;;;;;4966066;29;20030;-42
2022/10/26 08:28:30;;;;;;;6.00;0.93;;;27.00;92.40;;;;;;4965954;29;20417;-41
2022/10/26 08:30:56;;;;;;;6.20;0.90;;;27.00;92.40;;;;;;4965827;29;20019;-45
2022/10/26 08:33:24;;;;;;;4.90;1.17;;;26.90;92.50;;;;;;4965641;29;20057;-44
2022/10/26 08:36:01;;;;;;;4.65;0.98;;;26.90;92.50;;;;;;4965867;29;20311;-50
2022/10/26 08:38:28;;;;;;;7.10;0.90;;;26.90;92.60;;;;;;4966174;29;20019;-42
2022/10/26 08:40:56;;;;;;;6.15;0.88;;;26.90;92.40;;;;;;4965596;29;20022;-43
2022/10/26 08:43:51;;;;;;;5.07;1.10;;;26.90;92.40;;;;;;4965962;29;20011;-42
2022/10/26 08:46:24;;;;;;;7.22;1.23;;;26.90;92.50;;;;;;4965540;29;20030;-42
2022/10/26 08:48:55;;;;;;;5.80;1.20;;;26.90;92.40;;;;;;4965491;29;20283;-42
2022/10/26 08:51:29;;;;;;;5.32;1.05;;;26.90;92.50;;;;;;4967509;28;20054;-42
2022/10/26 08:54:29;;;;;;;4.72;0.88;;;26.90;92.60;;;;;;4969576;29;20062;-42
2022/10/26 08:57:00;;;;;;;6.82;0.90;;;26.90;92.60;;;;;;4944113;29;20035;-41
2022/10/26 08:59:45;;;;;;;5.30;1.25;;;26.90;92.70;;;;;;4969451;29;20039;-42
2022/10/26 09:02:14;;;;;;;5.13;0.90;;;26.90;92.80;;;;;;4969663;29;20026;-41
2022/10/26 09:04:41;;;;;;;6.05;1.00;;;26.90;92.80;;;;;;4969845;29;20031;-43
2022/10/26 09:07:22;;;;;;;7.85;1.27;;;26.80;92.80;;;;;;4969524;29;20035;-45
2022/10/26 09:10:33;;;;;;;5.63;1.17;;;26.80;92.80;;;;;;4969824;29;20031;-42
2022/10/26 09:13:05;;;;;;;7.68;1.20;;;26.80;92.90;;;;;;4969136;29;20318;-47
2022/10/26 09:15:45;;;;;;;6.50;1.30;;;26.90;92.90;;;;;;4969461;29;20027;-41
2022/10/26 09:18:24;;;;;;;8.00;1.17;;;26.80;92.90;;;;;;4969043;29;20042;-42
2022/10/26 09:21:28;;;;;;;4.60;0.95;;;26.80;92.90;;;;;;4969030;29;20023;-39
2022/10/26 09:24:17;;;;;;;5.90;1.00;;;26.80;92.90;;;;;;4968692;28;20073;-41
2022/10/26 09:26:50;;;;;;;5.93;1.30;;;26.80;92.90;;;;;;4952493;29;20086;-41
2022/10/26 09:29:17;;;;;;;6.18;1.52;;;26.70;92.90;;;;;;4968762;29;20043;-40
2022/10/26 09:31:47;;;;;;;5.85;1.10;;;26.70;92.90;;;;;;4969125;29;20087;-42
2022/10/26 09:34:31;;;;;;;5.05;1.50;;;26.80;92.90;;;;;;4968874;29;20035;-42
2022/10/26 09:36:58;;;;;;;5.78;1.05;;;26.70;92.80;;;;;;4969160;29;20022;-43
2022/10/26 09:39:51;;;;;;;7.28;1.42;;;26.70;92.90;;;;;;4969205;29;20041;-43
2022/10/26 09:43:00;;;;;;;5.35;1.10;;;26.70;92.90;;;;;;4968791;29;20333;-40
2022/10/26 09:45:34;;;;;;;8.15;1.23;;;26.70;92.90;;;;;;4968804;29;20035;-45
2022/10/26 09:48:07;;;;;;;7.47;1.35;;;26.60;92.90;;;;;;4968671;29;20035;-44
2022/10/26 09:50:36;;;;;;;12.63;1.73;;;26.60;92.90;;;;;;4969074;29;20070;-42
2022/10/26 09:53:03;;;;;;;5.82;1.10;;;26.70;92.90;;;;;;4968795;29;20023;-42
2022/10/26 09:55:32;;;;;;;4.75;1.08;;;26.70;92.90;;;;;;4968499;28;20074;-45
2022/10/26 09:58:05;;;;;;;7.22;2.38;;;26.70;92.90;;;;;;4968298;29;20065;-44
2022/10/26 10:00:33;;;;;;;6.25;1.02;;;26.60;92.90;;;;;;4968750;29;20038;-45
2022/10/26 10:03:00;;;;;;;10.68;1.38;;;26.60;92.90;;;;;;4966756;28;20031;-44
2022/10/26 10:05:34;;;;;;;3.72;1.15;;;26.60;92.90;;;;;;4968964;29;20290;-44
2022/10/26 10:08:23;;;;;;;5.70;1.40;;;26.60;92.90;;;;;;4968309;29;20373;-45
2022/10/26 10:11:13;;;;;;;4.15;1.13;;;26.60;93.00;;;;;;4968445;29;20059;-43
2022/10/26 10:13:45;;;;;;;7.20;1.30;;;26.60;93.00;;;;;;4968189;28;20110;-44
2022/10/26 10:16:24;;;;;;;7.18;1.27;;;26.60;93.00;;;;;;4968389;29;20035;-51
2022/10/26 10:19:00;;;;;;;9.32;1.90;;;26.60;93.00;;;;;;4967791;29;20031;-44
2022/10/26 10:21:38;;;;;;;8.95;1.80;;;26.60;93.00;;;;;;4967884;29;20199;-46
2022/10/26 10:24:29;;;;;;;10.32;1.85;;;26.60;93.00;;;;;;4967914;29;20046;-47
2022/10/26 10:27:02;;;;;;;10.93;2.10;;;26.60;93.00;;;;;;4968006;29;20315;-46
2022/10/26 10:29:32;;;;;;;8.23;1.90;;;26.60;93.00;;;;;;4968245;29;20187;-46
2022/10/26 10:32:01;;;;;;;10.75;2.47;;;26.50;93.00;;;;;;4968281;29;20023;-43
2022/10/26 10:34:30;;;;;;;7.95;2.40;;;26.50;93.00;;;;;;4967879;29;20051;-45
2022/10/26 10:36:58;;;;;;;11.30;3.40;;;26.50;93.00;;;;;;4967710;29;20027;-49
2022/10/26 10:39:34;;;;;;;7.95;2.75;;;26.50;93.00;;;;;;4967938;29;20023;-45
2022/10/26 10:42:03;;;;;;;12.35;2.20;;;26.50;93.00;;;;;;4968106;29;20042;-43
2022/10/26 10:44:31;;;;;;;9.45;2.80;;;26.50;93.00;;;;;;4967889;29;20054;-42
2022/10/26 10:47:15;;;;;;;7.78;1.90;;;26.50;93.00;;;;;;4967564;29;20042;-50
2022/10/26 10:49:49;;;;;;;7.15;2.03;;;26.50;93.10;;;;;;4967672;29;20066;-43
2022/10/26 10:52:27;;;;;;;4.30;2.10;;;26.50;93.10;;;;;;4967484;29;20035;-50
2022/10/26 10:55:12;;;;;;;8.75;2.60;;;26.50;93.10;;;;;;4967773;28;20062;-51
2022/10/26 10:58:00;;;;;;;9.98;3.05;;;26.50;93.10;;;;;;4967297;29;20023;-46
2022/10/26 11:00:27;;;;;;;8.02;2.60;;;26.50;93.10;;;;;;4968073;29;20061;-47
2022/10/26 11:03:03;;;;;;;8.18;2.63;;;26.50;93.20;;;;;;4967274;29;20031;-47
2022/10/26 11:05:51;;;;;;;10.65;3.15;;;26.50;93.20;;;;;;4966952;29;20039;-42
2022/10/26 11:08:29;;;;;;;9.10;2.53;;;26.50;93.30;;;;;;4966893;29;20039;-45
2022/10/26 11:11:02;;;;;;;7.68;2.72;;;26.50;93.30;;;;;;4967196;29;20028;-43
2022/10/26 11:13:40;;;;;;;8.25;2.80;;;26.50;93.30;;;;;;4966181;28;20023;-44
2022/10/26 11:16:14;;;;;;;11.20;3.33;;;26.50;93.30;;;;;;4967142;29;20038;-41
2022/10/26 11:18:45;;;;;;;9.02;2.90;;;26.50;93.30;;;;;;4966841;29;20050;-44
2022/10/26 11:21:43;;;;;;;12.70;3.58;;;26.50;93.30;;;;;;4966905;29;20023;-43
2022/10/26 11:24:16;;;;;;;18.15;3.63;;;26.50;93.20;;;;;;4951961;29;20051;-49
2022/10/26 11:27:11;;;;;;;10.63;3.35;;;26.60;93.30;;;;;;4966942;29;20179;-45
2022/10/26 11:30:14;;;;;;;13.15;3.75;;;26.70;93.20;;;;;;4966406;29;20227;-45
2022/10/26 11:33:04;;;;;;;14.25;3.63;;;28.40;91.10;;;;;;4966656;29;20023;-53
2022/10/26 11:35:37;;;;;;;10.95;3.50;;;28.10;90.60;;;;;;4966844;29;20040;-51
2022/10/26 11:38:09;;;;;;;34.03;4.90;;;27.80;91.20;;;;;;4967015;29;20112;-48
2022/10/26 11:40:53;;;;;;;27.38;4.43;;;27.50;91.50;;;;;;4950755;29;20050;-46
2022/10/26 11:43:42;;;;;;;17.48;3.70;;;27.40;91.80;;;;;;4967085;28;20027;-48
2022/10/26 11:46:24;;;;;;;13.35;3.40;;;27.30;92.00;;;;;;4967060;29;20031;-50
2022/10/26 11:48:54;;;;;;;14.87;3.77;;;27.20;92.10;;;;;;4966886;29;20118;-47
2022/10/26 11:51:42;;;;;;;18.88;3.72;;;27.20;92.10;;;;;;4966822;29;20273;-48
2022/10/26 11:54:34;;;;;;;14.07;3.45;;;27.20;92.20;;;;;;4967357;29;20023;-47
2022/10/26 11:57:03;;;;;;;8.02;2.65;;;27.20;92.30;;;;;;4956977;29;20027;-44
2022/10/26 11:59:32;;;;;;;11.13;2.40;;;27.10;92.40;;;;;;4967101;29;20031;-44
2022/10/26 12:02:12;;;;;;;12.85;2.75;;;27.20;92.50;;;;;;4966758;29;20027;-44
2022/10/26 12:04:41;;;;;;;12.65;2.70;;;27.20;92.50;;;;;;4966973;29;20102;-53
2022/10/26 12:07:20;;;;;;;6.15;2.30;;;27.20;92.50;;;;;;4966873;29;20098;-47
2022/10/26 12:09:47;;;;;;;8.52;2.22;;;27.20;92.30;;;;;;4967230;29;20039;-45
2022/10/26 12:12:20;;;;;;;6.32;2.00;;;27.20;92.30;;;;;;4966492;29;20031;-50
2022/10/26 12:14:59;;;;;;;9.38;2.10;;;27.20;92.30;;;;;;4966755;29;20019;-48
2022/10/26 12:17:38;;;;;;;8.00;1.90;;;27.30;92.30;;;;;;4966162;29;20034;-44
2022/10/26 12:20:23;;;;;;;6.93;2.00;;;27.30;92.30;;;;;;4966829;29;20267;-49
2022/10/26 12:22:50;;;;;;;7.82;1.92;;;27.30;92.50;;;;;;4965958;29;20031;-52
2022/10/26 12:25:16;;;;;;;5.05;1.80;;;27.30;92.30;;;;;;4965603;28;20039;-51
2022/10/26 12:27:42;;;;;;;4.43;1.38;;;27.30;92.30;;;;;;4966523;29;20031;-51
2022/10/26 12:30:19;;;;;;;7.38;2.00;;;27.40;92.30;;;;;;4966603;29;20046;-50
2022/10/26 12:32:48;;;;;;;5.78;1.50;;;27.30;92.30;;;;;;4966374;29;20031;-52
2022/10/26 12:35:32;;;;;;;6.40;1.60;;;27.40;92.30;;;;;;4966382;29;20035;-44
2022/10/26 12:38:01;;;;;;;5.43;1.73;;;27.40;92.30;;;;;;4965952;29;20086;-44
2022/10/26 12:40:33;;;;;;;4.30;1.33;;;27.40;92.30;;;;;;4966650;29;20243;-45
2022/10/26 12:43:14;;;;;;;;;;;27.40;92.30;;;;;;4966240;29;20357;-51
2022/10/26 12:45:45;;;;;;;4.78;1.60;;;27.40;92.30;;;;;;4966492;29;19910;-50
2022/10/26 12:48:25;;;;;;;4.90;1.10;;;27.40;92.40;;;;;;4952695;29;20047;-46
2022/10/26 12:50:52;;;;;;;4.47;1.42;;;27.40;92.50;;;;;;4946888;29;20081;-44
2022/10/26 12:53:22;;;;;;;5.60;1.10;;;27.40;92.70;;;;;;4946628;29;20024;-47
2022/10/26 12:56:11;;;;;;;4.55;1.35;;;27.40;92.50;;;;;;4946328;29;20027;-54
2022/10/26 12:58:53;;;;;;;3.45;1.27;;;27.50;92.60;;;;;;4946809;29;20032;-48
2022/10/26 13:01:43;;;;;;;4.80;1.23;;;27.50;92.60;;;;;;4946968;29;20287;-47
2022/10/26 13:04:09;;;;;;;5.70;1.52;;;27.50;92.60;;;;;;4947007;29;20043;-46
2022/10/26 13:07:03;;;;;;;5.82;1.23;;;27.50;92.60;;;;;;4946917;29;20016;-49
2022/10/26 13:09:32;;;;;;;6.35;1.42;;;27.50;92.60;;;;;;4946644;29;20044;-50
2022/10/26 13:12:04;;;;;;;1.70;1.00;;;27.50;92.70;;;;;;4946318;29;20038;-49
2022/10/26 13:14:39;;;;;;;3.13;1.10;;;27.50;92.70;;;;;;4946304;29;20260;-47
2022/10/26 13:17:20;;;;;;;2.67;1.10;;;27.50;92.80;;;;;;4946303;29;20095;-49
2022/10/26 13:19:56;;;;;;;3.67;1.10;;;27.60;92.70;;;;;;4946797;29;20036;-47
2022/10/26 13:22:23;;;;;;;3.10;1.25;;;27.60;92.70;;;;;;4946753;29;20019;-49
2022/10/26 13:25:02;;;;;;;3.28;1.30;;;27.60;92.70;;;;;;4946571;29;20046;-46
2022/10/26 13:27:35;;;;;;;5.85;1.05;;;27.60;92.70;;;;;;4946715;29;20023;-51
2022/10/26 13:30:04;;;;;;;4.45;1.13;;;27.60;92.70;;;;;;4947253;29;20042;-45
2022/10/26 13:32:39;;;;;;;3.53;1.00;;;27.60;92.70;;;;;;4946886;29;20016;-48
2022/10/26 13:35:11;;;;;;;4.28;1.25;;;27.60;92.70;;;;;;4947158;29;20095;-44
2022/10/26 13:37:43;;;;;;;5.05;1.10;;;27.70;92.80;;;;;;4948670;29;20070;-44
2022/10/26 13:40:17;;;;;;;5.50;0.98;;;27.70;92.70;;;;;;4950774;29;20070;-45
2022/10/26 13:43:10;;;;;;;2.50;0.88;;;27.70;92.80;;;;;;4950514;29;20083;-43
2022/10/26 13:45:53;;;;;;;3.15;0.90;;;27.70;92.70;;;;;;4942619;29;20058;-47
2022/10/26 13:48:27;;;;;;;3.00;1.00;;;27.70;92.60;;;;;;4949786;29;20291;-45
2022/10/26 13:50:57;;;;;;;2.00;0.90;;;27.70;92.70;;;;;;4949376;29;20043;-52
2022/10/26 13:53:58;;;;;;;1.83;1.00;;;27.70;92.60;;;;;;4949164;29;20024;-51
2022/10/26 13:56:34;;;;;;;5.40;0.90;;;27.80;92.60;;;;;;4932963;29;20240;-50
2022/10/26 13:59:14;;;;;;;1.35;0.80;;;27.80;92.70;;;;;;4949980;29;20019;-50
2022/10/26 14:01:41;;;;;;;3.38;1.15;;;27.80;92.60;;;;;;4949703;29;20035;-53
2022/10/26 14:04:25;;;;;;;3.35;0.90;;;27.80;92.60;;;;;;4949910;29;20047;-46
2022/10/26 14:06:53;;;;;;;3.70;0.80;;;27.80;92.50;;;;;;4949730;29;20045;-49
2022/10/26 14:09:21;;;;;;;3.50;1.00;;;27.80;92.50;;;;;;4949319;29;20050;-45
2022/10/26 14:11:59;;;;;;;4.15;1.00;;;27.80;92.40;;;;;;4949274;29;20032;-46
2022/10/26 14:14:31;;;;;;;3.20;1.10;;;27.80;92.40;;;;;;4949688;29;20099;-47
2022/10/26 14:16:58;;;;;;;2.80;0.68;;;27.90;92.30;;;;;;4949542;29;20032;-52
2022/10/26 14:19:35;;;;;;;2.80;0.85;;;27.90;92.30;;;;;;4949351;29;20251;-47
2022/10/26 14:22:02;;;;;;;3.85;0.80;;;27.90;92.20;;;;;;4949440;29;20037;-45
2022/10/26 14:24:31;;;;;;;1.45;0.80;;;27.90;92.20;;;;;;4949815;29;20034;-44
2022/10/26 14:26:58;;;;;;;2.22;0.82;;;28.00;92.20;;;;;;4949336;29;20027;-54
2022/10/26 14:29:27;;;;;;;3.08;1.00;;;27.90;92.10;;;;;;4949116;29;20076;-48
2022/10/26 14:31:54;;;;;;;3.08;0.90;;;28.00;92.10;;;;;;4948732;29;20016;-49
2022/10/26 14:34:21;;;;;;;1.85;0.90;;;28.00;92.00;;;;;;4948908;29;20040;-44
2022/10/26 14:36:50;;;;;;;2.53;0.80;;;28.00;92.00;;;;;;4948953;29;20019;-49
2022/10/26 14:39:39;;;;;;;2.20;0.85;;;28.00;91.90;;;;;;4949513;29;20286;-47
2022/10/26 14:42:29;;;;;;;2.05;0.82;;;28.10;91.80;;;;;;4949507;29;20024;-47
2022/10/26 14:44:56;;;;;;;5.05;0.77;;;28.10;91.80;;;;;;4932085;29;20235;-47
2022/10/26 14:47:26;;;;;;;2.08;0.80;;;28.10;91.40;;;;;;4948701;29;20043;-47
2022/10/26 14:49:53;;;;;;;1.33;0.77;;;28.10;91.10;;;;;;4948418;29;20035;-48
2022/10/26 14:52:33;;;;;;;3.92;1.00;;;28.10;91.00;;;;;;4948652;29;20043;-44
2022/10/26 14:55:03;;;;;;;2.85;1.00;;;28.20;91.00;;;;;;4949033;29;20204;-48
2022/10/26 14:57:38;;;;;;;2.33;0.88;;;28.20;91.10;;;;;;4948911;29;20135;-45
2022/10/26 15:00:19;;;;;;;2.25;1.05;;;28.20;91.10;;;;;;4948748;29;20039;-47
2022/10/26 15:02:54;;;;;;;1.35;1.05;;;28.30;91.00;;;;;;4948785;29;20040;-46
2022/10/26 15:05:23;;;;;;;1.40;0.90;;;28.30;90.90;;;;;;4948842;29;20062;-44
2022/10/26 15:07:53;;;;;;;5.28;0.98;;;28.30;90.90;;;;;;4948582;29;20038;-45
2022/10/26 15:10:38;;;;;;;1.63;0.98;;;28.30;90.90;;;;;;4949034;29;20030;-43
2022/10/26 15:13:22;;;;;;;1.25;1.00;;;28.30;90.80;;;;;;4948683;29;20036;-44
2022/10/26 15:15:50;;;;;;;2.65;1.02;;;28.30;90.70;;;;;;4948361;29;20079;-54
2022/10/26 15:18:27;;;;;;;1.17;0.80;;;28.30;90.60;;;;;;4948494;29;20070;-50
2022/10/26 15:20:55;;;;;;;1.95;0.90;;;28.40;90.60;;;;;;4948381;29;20211;-44
2022/10/26 15:23:24;;;;;;;2.03;0.90;;;28.40;90.50;;;;;;4948258;29;20099;-51
2022/10/26 15:26:02;;;;;;;0.73;0.70;;;28.40;90.40;;;;;;4948106;29;20030;-44
2022/10/26 15:28:31;;;;;;;1.55;0.90;;;28.40;90.10;;;;;;4948359;29;20071;-43
2022/10/26 15:31:09;;;;;;;1.33;0.80;;;28.40;90.10;;;;;;4948125;29;20027;-48
2022/10/26 15:33:40;;;;;;;1.77;0.75;;;28.50;90.10;;;;;;4948041;29;20063;-50
2022/10/26 15:36:22;;;;;;;1.73;0.80;;;28.50;90.10;;;;;;4948072;29;20024;-45
2022/10/26 15:38:49;;;;;;;2.20;0.80;;;28.50;90.00;;;;;;4948238;29;20038;-47
2022/10/26 15:41:24;;;;;;;1.50;0.80;;;28.50;89.80;;;;;;4948247;29;20024;-46
2022/10/26 15:43:55;;;;;;;1.48;0.77;;;28.50;89.80;;;;;;4947620;29;20264;-50
2022/10/26 15:46:22;;;;;;;1.98;0.90;;;28.50;89.70;;;;;;4947484;29;20093;-42
2022/10/26 15:48:57;;;;;;;2.42;1.00;;;28.60;89.60;;;;;;4963134;29;20070;-48
2022/10/26 15:51:24;;;;;;;2.20;0.98;;;28.60;89.50;;;;;;4966565;29;20038;-44
2022/10/26 15:53:51;;;;;;;2.35;1.00;;;28.60;89.70;;;;;;4967156;29;20027;-44
2022/10/26 15:56:21;;;;;;;1.50;0.80;;;28.60;89.90;;;;;;4966850;28;20027;-44
2022/10/26 15:58:48;;;;;;;1.27;0.80;;;28.60;90.00;;;;;;4966658;29;20085;-50
2022/10/26 16:01:26;;;;;;;4.32;0.80;;;28.70;90.00;;;;;;4967082;28;20035;-43